createdAt,value
2018-05-14T00:01:15.995Z,15.00
2018-05-14T00:03:43.482Z,15.00
2018-05-14T00:06:11.700Z,14.90
2018-05-14T00:08:39.148Z,14.80
2018-05-14T00:11:06.590Z,14.80
2018-05-14T00:13:34.047Z,14.70
2018-05-14T00:16:01.495Z,14.70
2018-05-14T00:18:28.960Z,14.60
2018-05-14T00:20:56.411Z,14.60
2018-05-14T00:23:24.288Z,14.50
2018-05-14T00:25:51.744Z,14.50
2018-05-14T00:28:19.207Z,14.50
2018-05-14T00:30:46.650Z,14.50
2018-05-14T00:33:14.124Z,14.40
2018-05-14T00:35:41.584Z,14.30
2018-05-14T00:38:09.048Z,14.20
2018-05-14T00:40:36.501Z,14.10
2018-05-14T00:43:03.983Z,14.10
2018-05-14T00:45:31.435Z,14.10
2018-05-14T00:47:58.894Z,14.20
2018-05-14T00:50:26.362Z,14.10
2018-05-14T00:52:53.811Z,14.10
2018-05-14T00:55:21.276Z,14.10
2018-05-14T00:57:48.840Z,14.10
2018-05-14T01:00:16.288Z,14.00
2018-05-14T01:02:43.851Z,14.10
2018-05-14T01:05:11.794Z,14.10
2018-05-14T01:07:39.279Z,14.10
2018-05-14T01:10:06.735Z,14.00
2018-05-14T01:12:34.186Z,14.00
2018-05-14T01:15:01.671Z,13.90
2018-05-14T01:17:29.901Z,13.90
2018-05-14T01:19:57.366Z,13.80
2018-05-14T01:22:24.828Z,13.90
2018-05-14T01:24:58.112Z,13.90
2018-05-14T01:27:25.580Z,13.80
2018-05-14T01:29:53.061Z,13.50
2018-05-14T01:32:20.525Z,13.40
2018-05-14T01:34:47.986Z,13.30
2018-05-14T01:37:15.450Z,13.20
2018-05-14T01:39:42.886Z,13.10
2018-05-14T01:42:10.764Z,13.00
2018-05-14T01:44:38.218Z,12.90
2018-05-14T01:47:05.713Z,12.90
2018-05-14T01:49:33.923Z,12.90
2018-05-14T01:52:01.422Z,12.90
2018-05-14T01:54:28.859Z,13.00
2018-05-14T01:56:56.326Z,13.10
2018-05-14T01:59:23.796Z,13.10
2018-05-14T02:01:58.307Z,13.10
2018-05-14T02:04:25.776Z,13.10
2018-05-14T02:06:53.255Z,13.10
2018-05-14T02:09:20.791Z,13.00
2018-05-14T02:11:48.346Z,13.10
2018-05-14T02:14:15.790Z,13.10
2018-05-14T02:16:44.064Z,13.10
2018-05-14T02:19:11.546Z,13.10
2018-05-14T02:21:39.000Z,13.10
2018-05-14T02:24:07.171Z,13.10
2018-05-14T02:26:34.629Z,12.90
2018-05-14T02:29:02.141Z,12.90
2018-05-14T02:31:29.595Z,13.00
2018-05-14T02:33:57.836Z,13.10
2018-05-14T02:36:25.292Z,13.00
2018-05-14T02:38:52.747Z,13.00
2018-05-14T02:41:20.218Z,13.00
2018-05-14T02:43:47.773Z,12.90
2018-05-14T02:46:15.327Z,12.70
2018-05-14T02:48:42.878Z,12.70
2018-05-14T02:51:10.339Z,12.70
2018-05-14T02:53:37.808Z,12.60
2018-05-14T02:56:05.252Z,12.40
2018-05-14T02:58:32.707Z,12.40
2018-05-14T03:01:00.184Z,12.20
2018-05-14T03:03:27.654Z,12.20
2018-05-14T03:05:55.912Z,12.30
2018-05-14T03:08:23.383Z,12.20
2018-05-14T03:10:50.837Z,12.40
2018-05-14T03:13:18.331Z,12.40
2018-05-14T03:15:46.570Z,12.50
2018-05-14T03:18:14.056Z,12.50
2018-05-14T03:20:41.585Z,12.60
2018-05-14T03:23:09.145Z,12.50
2018-05-14T03:25:36.605Z,12.60
2018-05-14T03:28:04.065Z,12.60
2018-05-14T03:30:31.550Z,12.60
2018-05-14T03:32:59.793Z,12.60
2018-05-14T03:35:27.240Z,12.60
2018-05-14T03:37:54.713Z,12.60
2018-05-14T03:40:22.208Z,12.50
2018-05-14T03:42:50.435Z,12.50
2018-05-14T03:45:17.973Z,12.50
2018-05-14T03:47:45.467Z,12.50
2018-05-14T03:50:13.034Z,12.50
2018-05-14T03:52:40.487Z,12.50
2018-05-14T03:55:07.954Z,12.50
2018-05-14T03:57:36.949Z,12.40
2018-05-14T04:00:16.384Z,12.40
2018-05-14T04:02:55.671Z,12.40
2018-05-14T04:08:22.606Z,12.30
2018-05-14T04:10:50.021Z,12.30
2018-05-14T04:13:17.609Z,12.30
2018-05-14T04:15:45.261Z,12.10
2018-05-14T04:18:12.988Z,12.10
2018-05-14T04:20:40.489Z,12.10
2018-05-14T04:23:07.948Z,12.10
2018-05-14T04:25:35.404Z,12.10
2018-05-14T04:28:02.860Z,12.20
2018-05-14T04:30:30.419Z,12.20
2018-05-14T04:32:57.883Z,12.30
2018-05-14T04:35:25.348Z,12.30
2018-05-14T04:37:52.804Z,12.30
2018-05-14T04:40:20.267Z,12.30
2018-05-14T04:42:47.811Z,12.40
2018-05-14T04:45:15.272Z,12.40
2018-05-14T04:47:43.499Z,12.40
2018-05-14T04:50:10.963Z,12.40
2018-05-14T04:52:38.448Z,12.40
2018-05-14T04:55:05.913Z,12.20
2018-05-14T04:57:33.384Z,12.30
2018-05-14T05:00:00.949Z,12.40
2018-05-14T05:02:28.408Z,12.40
2018-05-14T05:07:49.400Z,12.50
2018-05-14T05:10:16.873Z,12.60
2018-05-14T05:12:44.336Z,12.60
2018-05-14T05:15:11.917Z,12.70
2018-05-14T05:17:40.159Z,12.90
2018-05-14T05:20:07.619Z,12.90
2018-05-14T05:22:35.077Z,13.10
2018-05-14T05:25:02.536Z,13.20
2018-05-14T05:27:30.000Z,13.40
2018-05-14T05:29:57.572Z,13.60
2018-05-14T05:32:25.029Z,13.80
2018-05-14T05:34:52.497Z,14.00
2018-05-14T05:37:19.990Z,14.20
2018-05-14T05:39:48.211Z,14.70
2018-05-14T05:42:16.058Z,14.60
2018-05-14T05:44:43.512Z,14.90
2018-05-14T05:47:10.980Z,15.00
2018-05-14T05:49:38.456Z,15.20
2018-05-14T05:52:05.916Z,15.30
2018-05-14T05:54:33.379Z,15.50
2018-05-14T05:57:00.836Z,15.70
2018-05-14T05:59:28.402Z,15.90
2018-05-14T06:02:09.253Z,16.10
2018-05-14T06:04:36.736Z,16.20
2018-05-14T06:07:04.227Z,16.40
2018-05-14T06:09:31.708Z,16.60
2018-05-14T06:11:59.116Z,16.80
2018-05-14T06:14:26.584Z,17.00
2018-05-14T06:16:54.129Z,17.10
2018-05-14T06:19:21.592Z,17.30
2018-05-14T06:21:49.916Z,17.60
2018-05-14T06:24:17.427Z,17.60
2018-05-14T06:26:44.887Z,17.70
2018-05-14T06:29:12.355Z,17.90
2018-05-14T06:31:39.819Z,18.00
2018-05-14T06:34:07.298Z,18.10
2018-05-14T06:36:35.516Z,18.40
2018-05-14T06:39:02.990Z,18.40
2018-05-14T06:41:30.442Z,18.50
2018-05-14T06:43:57.917Z,18.60
2018-05-14T06:46:25.376Z,18.70
2018-05-14T06:48:52.838Z,18.90
2018-05-14T06:51:20.296Z,19.00
2018-05-14T06:53:47.752Z,19.20
2018-05-14T06:56:15.221Z,19.40
2018-05-14T06:58:42.696Z,19.50
2018-05-14T07:01:10.909Z,19.80
2018-05-14T07:03:38.369Z,19.80
2018-05-14T07:06:05.842Z,19.90
2018-05-14T07:08:33.434Z,19.90
2018-05-14T07:11:00.785Z,20.00
2018-05-14T07:13:28.255Z,20.00
2018-05-14T07:15:56.487Z,20.20
2018-05-14T07:18:23.953Z,20.20
2018-05-14T07:20:51.431Z,20.40
2018-05-14T07:23:18.895Z,20.50
2018-05-14T07:25:46.364Z,20.60
2018-05-14T07:28:14.600Z,21.00
2018-05-14T07:30:42.140Z,21.00
2018-05-14T07:33:09.597Z,21.10
2018-05-14T07:35:37.063Z,21.20
2018-05-14T07:38:04.531Z,21.40
2018-05-14T07:40:32.032Z,21.50
2018-05-14T07:42:59.452Z,21.60
2018-05-14T07:45:26.919Z,21.70
2018-05-14T07:47:54.376Z,21.80
2018-05-14T07:50:21.852Z,21.90
2018-05-14T07:52:49.308Z,22.00
2018-05-14T07:55:16.767Z,22.10
2018-05-14T07:57:44.231Z,22.20
2018-05-14T08:00:11.773Z,22.30
2018-05-14T08:02:39.153Z,22.40
2018-05-14T08:05:06.607Z,22.50
2018-05-14T08:07:34.063Z,22.50
2018-05-14T08:10:01.518Z,22.60
2018-05-14T08:12:28.985Z,22.70
2018-05-14T08:14:56.447Z,22.80
2018-05-14T08:17:23.907Z,22.90
2018-05-14T08:19:51.380Z,23.10
2018-05-14T08:22:19.607Z,23.40
2018-05-14T08:24:47.072Z,23.30
2018-05-14T08:27:14.540Z,23.50
2018-05-14T08:29:42.008Z,23.60
2018-05-14T08:32:09.933Z,23.70
2018-05-14T08:34:37.387Z,23.70
2018-05-14T08:37:04.929Z,23.80
2018-05-14T08:39:32.335Z,23.90
2018-05-14T08:41:59.793Z,23.80
2018-05-14T08:44:27.270Z,23.90
2018-05-14T08:46:55.106Z,24.10
2018-05-14T08:49:22.760Z,24.40
2018-05-14T08:51:50.021Z,24.50
2018-05-14T08:54:17.514Z,24.70
2018-05-14T08:56:44.948Z,24.70
2018-05-14T08:59:12.407Z,24.80
2018-05-14T09:01:39.879Z,24.90
2018-05-14T09:04:07.331Z,25.00
2018-05-14T09:06:34.800Z,25.00
2018-05-14T09:09:02.269Z,25.00
2018-05-14T09:11:29.730Z,25.00
2018-05-14T09:13:57.967Z,24.90
2018-05-14T09:16:25.433Z,24.90
2018-05-14T09:18:52.892Z,25.10
2018-05-14T09:21:20.346Z,25.30
2018-05-14T09:23:47.806Z,25.50
2018-05-14T09:26:15.264Z,25.60
2018-05-14T09:28:42.724Z,25.70
2018-05-14T09:31:10.185Z,25.90
2018-05-14T09:33:37.664Z,25.90
2018-05-14T09:36:05.130Z,26.10
2018-05-14T09:38:32.577Z,26.40
2018-05-14T09:41:00.055Z,26.70
2018-05-14T09:43:28.285Z,26.80
2018-05-14T09:45:55.735Z,26.80
2018-05-14T09:48:23.197Z,26.80
2018-05-14T09:50:50.652Z,26.80
2018-05-14T09:53:18.118Z,26.70
2018-05-14T09:55:45.590Z,26.80
2018-05-14T09:58:16.269Z,26.80
2018-05-14T10:00:44.496Z,27.00
2018-05-14T10:03:11.955Z,27.00
2018-05-14T10:05:39.423Z,27.20
2018-05-14T10:08:06.876Z,27.20
2018-05-14T10:10:34.596Z,27.20
2018-05-14T10:13:02.083Z,27.10
2018-05-14T10:15:29.539Z,26.90
2018-05-14T10:17:56.996Z,27.00
2018-05-14T10:20:24.456Z,26.90
2018-05-14T10:22:51.916Z,26.90
2018-05-14T10:25:19.395Z,27.10
2018-05-14T10:27:46.851Z,27.10
2018-05-14T10:30:14.315Z,27.00
2018-05-14T10:32:41.772Z,27.20
2018-05-14T10:35:09.242Z,27.20
2018-05-14T10:37:36.695Z,27.40
2018-05-14T10:40:04.153Z,27.70
2018-05-14T10:42:31.605Z,27.90
2018-05-14T10:44:59.063Z,27.90
2018-05-14T10:47:26.528Z,28.10
2018-05-14T10:49:53.984Z,28.30
2018-05-14T10:52:21.440Z,28.30
2018-05-14T10:54:48.893Z,28.20
2018-05-14T10:57:16.356Z,28.10
2018-05-14T10:59:43.820Z,28.10
2018-05-14T11:02:11.488Z,28.10
2018-05-14T11:04:38.939Z,28.30
2018-05-14T11:07:06.413Z,28.30
2018-05-14T11:09:33.863Z,28.40
2018-05-14T11:12:01.347Z,28.40
2018-05-14T11:14:29.571Z,28.50
2018-05-14T11:16:57.527Z,28.50
2018-05-14T11:19:24.975Z,28.60
2018-05-14T11:21:52.427Z,28.70
2018-05-14T11:24:19.884Z,28.90
2018-05-14T11:26:47.352Z,29.00
2018-05-14T11:29:14.809Z,29.10
2018-05-14T11:31:42.272Z,29.00
2018-05-14T11:34:09.724Z,29.00
2018-05-14T11:36:37.189Z,29.00
2018-05-14T11:39:04.648Z,29.10
2018-05-14T11:41:32.104Z,29.30
2018-05-14T11:43:59.576Z,29.40
2018-05-14T11:46:27.041Z,29.40
2018-05-14T11:48:54.489Z,29.30
2018-05-14T11:51:21.941Z,29.30
2018-05-14T11:53:49.397Z,29.30
2018-05-14T11:56:16.856Z,29.10
2018-05-14T11:58:44.316Z,29.00
2018-05-14T12:01:11.775Z,29.00
2018-05-14T12:03:39.233Z,28.80
2018-05-14T12:06:06.697Z,28.90
2018-05-14T12:08:34.168Z,28.70
2018-05-14T12:11:01.625Z,28.50
2018-05-14T12:13:29.088Z,28.30
2018-05-14T12:15:56.545Z,28.30
2018-05-14T12:18:23.994Z,28.20
2018-05-14T12:20:51.456Z,28.20
2018-05-14T12:23:18.926Z,28.30
2018-05-14T12:25:46.473Z,28.30
2018-05-14T12:28:13.835Z,28.30
2018-05-14T12:30:41.301Z,28.30
2018-05-14T12:33:08.763Z,28.30
2018-05-14T12:35:36.988Z,28.50
2018-05-14T12:38:05.212Z,28.60
2018-05-14T12:40:32.669Z,28.60
2018-05-14T12:43:00.141Z,28.60
2018-05-14T12:45:28.355Z,28.70
2018-05-14T12:47:55.844Z,28.70
2018-05-14T12:50:23.295Z,28.60
2018-05-14T12:52:52.037Z,28.50
2018-05-14T12:55:19.491Z,28.50
2018-05-14T12:57:46.956Z,28.50
2018-05-14T13:00:14.411Z,28.50
2018-05-14T13:02:41.916Z,28.50
2018-05-14T13:05:09.383Z,28.40
2018-05-14T13:07:36.852Z,28.30
2018-05-14T13:10:04.316Z,28.30
2018-05-14T13:12:31.780Z,28.40
2018-05-14T13:14:59.237Z,28.40
2018-05-14T13:17:26.701Z,28.40
2018-05-14T13:19:54.163Z,28.40
2018-05-14T13:22:21.627Z,28.40
2018-05-14T13:24:49.091Z,28.30
2018-05-14T13:27:16.570Z,28.30
2018-05-14T13:29:44.015Z,28.40
2018-05-14T13:32:12.240Z,28.50
2018-05-14T13:34:40.391Z,28.50
2018-05-14T13:37:08.619Z,28.70
2018-05-14T13:39:36.084Z,28.70
2018-05-14T13:42:03.541Z,28.70
2018-05-14T13:44:31.526Z,28.80
2018-05-14T13:46:58.952Z,28.80
2018-05-14T13:49:26.403Z,28.50
2018-05-14T13:51:53.876Z,28.50
2018-05-14T13:54:21.347Z,28.40
2018-05-14T13:56:48.820Z,28.20
2018-05-14T13:59:16.281Z,28.20
2018-05-14T14:01:43.744Z,28.30
2018-05-14T14:04:11.200Z,28.40
2018-05-14T14:06:38.671Z,28.40
2018-05-14T14:09:06.120Z,28.30
2018-05-14T14:11:33.652Z,28.30
2018-05-14T14:14:01.047Z,28.40
2018-05-14T14:16:29.279Z,28.50
2018-05-14T14:18:56.739Z,28.50
2018-05-14T14:21:24.972Z,28.20
2018-05-14T14:23:53.342Z,28.20
2018-05-14T14:26:20.651Z,28.20
2018-05-14T14:28:48.104Z,28.20
2018-05-14T14:31:15.571Z,28.20
2018-05-14T14:33:43.060Z,28.20
2018-05-14T14:36:10.629Z,28.20
2018-05-14T14:38:37.981Z,28.20
2018-05-14T14:41:05.437Z,28.10
2018-05-14T14:43:32.898Z,28.20
2018-05-14T14:46:00.358Z,28.20
2018-05-14T14:48:27.824Z,28.10
2018-05-14T14:50:56.045Z,28.20
2018-05-14T14:53:23.506Z,28.10
2018-05-14T14:55:51.064Z,28.30
2018-05-14T14:58:18.547Z,28.30
2018-05-14T15:00:45.991Z,28.30
2018-05-14T15:03:13.459Z,28.20
2018-05-14T15:05:40.916Z,28.20
2018-05-14T15:08:08.387Z,28.10
2018-05-14T15:10:35.841Z,28.00
2018-05-14T15:13:03.301Z,28.00
2018-05-14T15:15:30.772Z,27.80
2018-05-14T15:17:58.228Z,27.70
2018-05-14T15:20:25.684Z,27.90
2018-05-14T15:22:53.157Z,27.60
2018-05-14T15:25:20.622Z,27.60
2018-05-14T15:27:48.847Z,27.90
2018-05-14T15:30:16.303Z,27.90
2018-05-14T15:32:43.771Z,27.90
2018-05-14T15:35:11.232Z,28.00
2018-05-14T15:37:38.691Z,27.90
2018-05-14T15:40:06.154Z,27.80
2018-05-14T15:42:33.630Z,27.60
2018-05-14T15:45:01.093Z,27.70
2018-05-14T15:47:28.550Z,27.60
2018-05-14T15:49:56.108Z,27.70
2018-05-14T15:52:23.477Z,27.80
2018-05-14T15:54:50.939Z,27.80
2018-05-14T15:57:18.400Z,27.90
2018-05-14T15:59:46.624Z,27.80
2018-05-14T16:02:14.094Z,27.80
2018-05-14T16:04:41.551Z,27.70
2018-05-14T16:07:09.017Z,27.50
2018-05-14T16:09:36.463Z,27.40
2018-05-14T16:12:03.928Z,27.30
2018-05-14T16:14:31.410Z,27.30
2018-05-14T16:16:58.875Z,27.20
2018-05-14T16:19:26.331Z,27.10
2018-05-14T16:21:53.787Z,27.00
2018-05-14T16:24:21.264Z,26.80
2018-05-14T16:26:49.489Z,26.40
2018-05-14T16:29:16.940Z,26.40
2018-05-14T16:31:44.416Z,26.40
2018-05-14T16:34:11.867Z,26.30
2018-05-14T16:36:39.327Z,26.20
2018-05-14T16:39:06.799Z,26.10
2018-05-14T16:41:34.361Z,26.00
2018-05-14T16:44:01.816Z,25.90
2018-05-14T16:46:29.271Z,25.80
2018-05-14T16:48:56.746Z,25.50
2018-05-14T16:51:24.210Z,25.30
2018-05-14T16:53:51.689Z,25.30
2018-05-14T16:56:19.917Z,25.10
2018-05-14T16:58:47.387Z,25.10
2018-05-14T17:01:14.844Z,25.10
2018-05-14T17:03:42.335Z,24.90
2018-05-14T17:06:09.766Z,24.80
2018-05-14T17:08:37.223Z,24.70
2018-05-14T17:11:04.681Z,24.50
2018-05-14T17:13:32.161Z,24.50
2018-05-14T17:15:59.611Z,24.40
2018-05-14T17:18:27.085Z,24.40
2018-05-14T17:20:54.549Z,24.30
2018-05-14T17:23:22.782Z,24.20
2018-05-14T17:25:50.227Z,24.20
2018-05-14T17:28:17.687Z,24.10
2018-05-14T17:30:45.159Z,23.90
2018-05-14T17:33:12.621Z,23.90
2018-05-14T17:35:40.099Z,23.90
2018-05-14T17:38:07.556Z,23.70
2018-05-14T17:40:35.016Z,23.60
2018-05-14T17:43:02.600Z,23.50
2018-05-14T17:45:30.817Z,23.30
2018-05-14T17:47:58.276Z,23.30
2018-05-14T17:50:25.733Z,23.30
2018-05-14T17:52:53.282Z,23.30
2018-05-14T17:55:20.659Z,23.30
2018-05-14T17:57:48.120Z,23.20
2018-05-14T18:00:15.609Z,23.10
2018-05-14T18:02:43.100Z,23.00
2018-05-14T18:05:11.474Z,22.80
2018-05-14T18:07:38.906Z,22.80
2018-05-14T18:10:06.373Z,22.80
2018-05-14T18:12:33.840Z,22.70
2018-05-14T18:15:02.083Z,22.40
2018-05-14T18:17:29.625Z,22.40
2018-05-14T18:22:39.799Z,22.10
2018-05-14T18:25:12.879Z,22.10
2018-05-14T18:27:45.991Z,22.10
2018-05-14T18:30:13.451Z,22.10
2018-05-14T18:32:41.060Z,22.00
2018-05-14T18:35:25.148Z,21.90
2018-05-14T18:37:52.672Z,21.80
2018-05-14T18:40:20.152Z,21.70
2018-05-14T18:42:47.617Z,21.60
2018-05-14T18:45:15.069Z,21.50
2018-05-14T18:47:42.523Z,21.40
2018-05-14T18:50:10.046Z,21.40
2018-05-14T18:52:37.593Z,21.40
2018-05-14T18:55:05.054Z,21.30
2018-05-14T19:00:25.771Z,21.10
2018-05-14T19:02:53.244Z,21.00
2018-05-14T19:05:20.700Z,20.90
2018-05-14T19:07:48.183Z,20.80
2018-05-14T19:10:21.291Z,20.80
2018-05-14T19:12:48.752Z,20.70
2018-05-14T19:15:22.074Z,20.60
2018-05-14T19:17:55.353Z,20.60
2018-05-14T19:20:22.807Z,20.60
2018-05-14T19:22:55.905Z,20.50
2018-05-14T19:25:23.365Z,20.40
2018-05-14T19:27:56.641Z,20.40
2018-05-14T19:30:24.153Z,20.40
2018-05-14T19:32:51.604Z,20.30
2018-05-14T19:35:24.811Z,20.30
2018-05-14T19:37:52.268Z,20.20
2018-05-14T19:40:25.401Z,20.10
2018-05-14T19:42:52.891Z,20.00
2018-05-14T19:45:20.354Z,19.90
2018-05-14T19:47:47.812Z,19.90
2018-05-14T19:50:15.288Z,19.80
2018-05-14T19:52:42.754Z,19.80
2018-05-14T19:55:10.215Z,19.70
2018-05-14T19:57:37.764Z,19.60
2018-05-14T20:00:05.228Z,19.60
2018-05-14T20:02:32.779Z,19.50
2018-05-14T20:05:00.237Z,19.30
2018-05-14T20:07:27.700Z,19.30
2018-05-14T20:09:55.168Z,19.20
2018-05-14T20:12:22.625Z,19.20
2018-05-14T20:14:50.092Z,19.10
2018-05-14T20:17:18.313Z,18.90
2018-05-14T20:19:45.770Z,18.90
2018-05-14T20:22:13.220Z,18.80
2018-05-14T20:24:40.686Z,18.60
2018-05-14T20:27:08.139Z,18.30
2018-05-14T20:29:35.617Z,18.20
2018-05-14T20:32:03.067Z,18.10
2018-05-14T20:34:30.542Z,18.10
2018-05-14T20:36:58.805Z,18.10
2018-05-14T20:39:26.271Z,18.10
2018-05-14T20:41:53.729Z,18.10
2018-05-14T20:44:21.208Z,18.10
2018-05-14T20:46:48.759Z,18.00
2018-05-14T20:49:16.222Z,18.00
2018-05-14T20:51:43.788Z,17.90
2018-05-14T20:54:11.251Z,17.80
2018-05-14T20:56:38.734Z,17.80
2018-05-14T20:59:06.959Z,17.30
2018-05-14T21:01:34.417Z,17.30
2018-05-14T21:04:01.959Z,17.20
2018-05-14T21:06:29.420Z,17.10
2018-05-14T21:08:56.895Z,17.00
2018-05-14T21:11:24.354Z,16.90
2018-05-14T21:13:51.824Z,16.80
2018-05-14T21:16:19.271Z,16.70
2018-05-14T21:18:46.754Z,16.70
2018-05-14T21:21:14.237Z,16.70
2018-05-14T21:23:42.488Z,16.70
2018-05-14T21:26:09.996Z,16.60
2018-05-14T21:28:37.479Z,16.70
2018-05-14T21:31:04.945Z,16.60
2018-05-14T21:33:32.400Z,16.30
2018-05-14T21:35:59.873Z,16.00
2018-05-14T21:38:27.341Z,16.00
2018-05-14T21:40:55.921Z,16.00
2018-05-14T21:43:23.458Z,16.00
2018-05-14T21:45:50.929Z,16.00
2018-05-14T21:48:18.763Z,16.00
2018-05-14T21:50:46.221Z,16.00
2018-05-14T21:53:13.721Z,16.00
2018-05-14T21:55:41.184Z,16.00
2018-05-14T21:58:08.693Z,16.00
2018-05-14T22:00:36.151Z,16.00
2018-05-14T22:03:03.610Z,15.90
2018-05-14T22:05:31.112Z,15.90
2018-05-14T22:07:58.579Z,15.80
2018-05-14T22:10:26.805Z,15.70
2018-05-14T22:12:54.265Z,15.70
2018-05-14T22:15:21.767Z,15.70
2018-05-14T22:17:49.320Z,15.60
2018-05-14T22:20:16.879Z,15.50
2018-05-14T22:22:44.339Z,15.40
2018-05-14T22:25:11.813Z,15.40
2018-05-14T22:27:39.355Z,15.30
2018-05-14T22:30:06.915Z,15.30
2018-05-14T22:32:34.372Z,15.10
2018-05-14T22:35:01.947Z,15.10
2018-05-14T22:37:29.509Z,15.00
2018-05-14T22:39:56.895Z,14.90
2018-05-14T22:42:25.134Z,14.90
2018-05-14T22:44:52.606Z,14.80
2018-05-14T22:47:20.065Z,14.80
2018-05-14T22:49:49.044Z,14.70
2018-05-14T22:52:16.523Z,14.70
2018-05-14T22:54:44.780Z,14.50
2018-05-14T22:57:12.235Z,14.50
2018-05-14T22:59:39.806Z,14.50
2018-05-14T23:02:07.255Z,14.40
2018-05-14T23:04:34.726Z,14.40
2018-05-14T23:07:02.271Z,14.30
2018-05-14T23:09:29.760Z,14.30
2018-05-14T23:11:57.207Z,14.40
2018-05-14T23:14:24.723Z,14.20
2018-05-14T23:16:52.275Z,14.10
2018-05-14T23:19:19.722Z,14.00
2018-05-14T23:21:47.179Z,13.90
2018-05-14T23:24:14.671Z,13.80
2018-05-14T23:26:42.140Z,13.90
2018-05-14T23:29:09.624Z,13.80
2018-05-14T23:31:37.205Z,13.70
2018-05-14T23:34:05.427Z,13.80
2018-05-14T23:36:32.896Z,13.80
2018-05-14T23:39:00.360Z,13.80
2018-05-14T23:41:27.916Z,13.80
2018-05-14T23:43:55.479Z,13.60
2018-05-14T23:46:23.039Z,13.60
2018-05-14T23:48:50.516Z,13.60
2018-05-14T23:51:19.492Z,13.50
2018-05-14T23:53:47.051Z,13.40
2018-05-14T23:56:14.529Z,13.40
2018-05-14T23:58:41.987Z,13.40
